createdAt,value
2018-06-03T00:01:56.746Z,18.80
2018-06-03T00:04:27.116Z,18.60
2018-06-03T00:06:57.505Z,18.60
2018-06-03T00:09:28.906Z,18.60
2018-06-03T00:12:00.040Z,18.70
2018-06-03T00:14:31.455Z,18.70
2018-06-03T00:17:05.911Z,18.70
2018-06-03T00:19:36.282Z,18.60
2018-06-03T00:22:06.680Z,18.60
2018-06-03T00:24:37.815Z,18.60
2018-06-03T00:27:08.187Z,18.40
2018-06-03T00:29:38.580Z,18.60
2018-06-03T00:32:08.942Z,18.40
2018-06-03T00:34:39.307Z,18.50
2018-06-03T00:37:09.689Z,18.50
2018-06-03T00:39:40.000Z,18.40
2018-06-03T00:42:10.360Z,18.40
2018-06-03T00:44:48.077Z,18.30
2018-06-03T00:47:18.430Z,18.20
2018-06-03T00:49:48.784Z,18.20
2018-06-03T00:52:19.169Z,18.10
2018-06-03T00:54:49.532Z,18.20
2018-06-03T00:57:19.888Z,18.30
2018-06-03T01:00:09.650Z,18.00
2018-06-03T01:02:40.019Z,18.30
2018-06-03T01:05:10.381Z,18.20
2018-06-03T01:07:41.531Z,18.30
2018-06-03T01:10:11.893Z,18.20
2018-06-03T01:12:48.424Z,18.30
2018-06-03T01:15:19.771Z,18.00
2018-06-03T01:17:50.897Z,18.10
2018-06-03T01:20:21.272Z,18.00
2018-06-03T01:22:53.122Z,18.00
2018-06-03T01:25:23.492Z,17.90
2018-06-03T01:27:53.934Z,17.90
2018-06-03T01:30:24.229Z,17.60
2018-06-03T01:32:55.605Z,17.50
2018-06-03T01:35:25.992Z,17.60
2018-06-03T01:37:56.356Z,17.90
2018-06-03T01:40:27.500Z,18.00
2018-06-03T01:42:58.860Z,17.90
2018-06-03T01:45:29.996Z,17.90
2018-06-03T01:48:00.304Z,17.90
2018-06-03T01:50:30.679Z,17.80
2018-06-03T01:53:01.045Z,17.80
2018-06-03T01:55:51.819Z,17.70
2018-06-03T01:58:22.191Z,17.80
2018-06-03T02:00:52.553Z,17.90
2018-06-03T02:03:23.704Z,17.70
2018-06-03T02:05:54.827Z,17.60
2018-06-03T02:08:26.675Z,17.60
2018-06-03T02:10:57.067Z,17.60
2018-06-03T02:13:34.753Z,17.70
2018-06-03T02:16:05.144Z,17.70
2018-06-03T02:18:37.293Z,17.70
2018-06-03T02:21:07.668Z,17.70
2018-06-03T02:23:38.057Z,17.70
2018-06-03T02:26:09.192Z,17.70
2018-06-03T02:28:39.558Z,17.60
2018-06-03T02:31:09.943Z,17.70
2018-06-03T02:33:40.304Z,17.50
2018-06-03T02:36:10.672Z,17.80
2018-06-03T02:38:44.129Z,17.60
2018-06-03T02:41:15.262Z,17.50
2018-06-03T02:43:46.388Z,17.60
2018-06-03T02:46:16.725Z,17.60
2018-06-03T02:48:48.084Z,17.60
2018-06-03T02:51:19.205Z,17.70
2018-06-03T02:53:49.585Z,17.70
2018-06-03T02:56:21.998Z,17.70
2018-06-03T02:58:52.307Z,17.50
2018-06-03T03:01:22.652Z,17.40
2018-06-03T03:03:53.015Z,17.30
2018-06-03T03:06:23.373Z,17.50
2018-06-03T03:08:57.863Z,17.40
2018-06-03T03:11:28.994Z,17.40
2018-06-03T03:14:00.125Z,17.40
2018-06-03T03:16:31.274Z,17.50
2018-06-03T03:19:02.416Z,17.30
2018-06-03T03:21:33.543Z,17.40
2018-06-03T03:24:03.925Z,17.40
2018-06-03T03:26:35.307Z,17.40
2018-06-03T03:29:05.667Z,17.40
2018-06-03T03:31:36.832Z,17.50
2018-06-03T03:34:07.194Z,17.50
2018-06-03T03:36:58.988Z,17.50
2018-06-03T03:39:29.357Z,17.40
2018-06-03T03:41:59.931Z,17.40
2018-06-03T03:44:31.092Z,17.20
2018-06-03T03:47:01.473Z,17.20
2018-06-03T03:49:31.838Z,17.30
2018-06-03T03:52:02.223Z,17.20
2018-06-03T03:54:32.591Z,17.40
2018-06-03T03:57:02.895Z,17.20
2018-06-03T03:59:34.052Z,17.30
2018-06-03T04:02:05.173Z,17.30
2018-06-03T04:04:36.307Z,17.20
2018-06-03T04:09:51.115Z,17.20
2018-06-03T04:12:22.265Z,17.30
2018-06-03T04:14:52.630Z,17.30
2018-06-03T04:17:42.380Z,17.30
2018-06-03T04:20:12.997Z,17.20
2018-06-03T04:22:44.122Z,17.40
2018-06-03T04:25:14.513Z,17.30
2018-06-03T04:28:04.952Z,17.40
2018-06-03T04:30:36.099Z,17.50
2018-06-03T04:33:08.192Z,17.60
2018-06-03T04:35:38.548Z,17.60
2018-06-03T04:38:31.120Z,17.40
2018-06-03T04:41:01.483Z,17.40
2018-06-03T04:43:31.835Z,17.50
2018-06-03T04:46:08.360Z,17.40
2018-06-03T04:48:39.719Z,17.60
2018-06-03T04:51:10.077Z,17.60
2018-06-03T04:53:40.464Z,17.50
2018-06-03T04:56:11.586Z,17.70
2018-06-03T04:58:41.960Z,17.60
2018-06-03T05:01:12.349Z,17.50
2018-06-03T05:03:42.719Z,17.60
2018-06-03T05:06:13.082Z,17.60
2018-06-03T05:08:43.466Z,17.60
2018-06-03T05:11:13.762Z,17.60
2018-06-03T05:13:45.120Z,17.80
2018-06-03T05:16:16.278Z,17.80
2018-06-03T05:18:46.645Z,17.80
2018-06-03T05:21:18.022Z,17.90
2018-06-03T05:23:48.356Z,17.80
2018-06-03T05:26:19.428Z,18.00
2018-06-03T05:28:49.804Z,18.00
2018-06-03T05:31:20.181Z,17.90
2018-06-03T05:33:50.486Z,17.80
2018-06-03T05:36:21.620Z,18.00
2018-06-03T05:38:53.801Z,18.10
2018-06-03T05:41:24.932Z,18.10
2018-06-03T05:43:56.066Z,18.00
2018-06-03T05:46:26.471Z,18.00
2018-06-03T05:48:59.903Z,18.20
2018-06-03T05:51:30.264Z,18.20
2018-06-03T05:54:00.651Z,18.30
2018-06-03T05:56:32.495Z,18.10
2018-06-03T05:59:02.864Z,18.10
2018-06-03T06:01:33.247Z,18.40
2018-06-03T06:04:03.909Z,18.60
2018-06-03T06:06:35.054Z,18.80
2018-06-03T06:09:06.261Z,18.70
2018-06-03T06:11:36.577Z,18.70
2018-06-03T06:14:06.942Z,18.80
2018-06-03T06:16:38.097Z,18.90
2018-06-03T06:19:09.442Z,19.20
2018-06-03T06:21:40.577Z,19.30
2018-06-03T06:24:11.722Z,19.20
2018-06-03T06:26:42.854Z,19.40
2018-06-03T06:29:13.210Z,19.40
2018-06-03T06:31:43.828Z,19.60
2018-06-03T06:34:17.225Z,19.90
2018-06-03T06:36:48.359Z,20.10
2018-06-03T06:39:19.523Z,20.10
2018-06-03T06:41:50.634Z,20.10
2018-06-03T06:44:20.940Z,20.20
2018-06-03T06:46:51.326Z,20.30
2018-06-03T06:49:21.691Z,20.50
2018-06-03T06:51:58.200Z,20.40
2018-06-03T06:54:29.331Z,20.60
2018-06-03T06:57:00.441Z,20.60
2018-06-03T06:59:30.781Z,20.60
2018-06-03T07:02:01.836Z,20.80
2018-06-03T07:04:32.203Z,20.90
2018-06-03T07:07:02.588Z,20.80
2018-06-03T07:09:32.961Z,20.50
2018-06-03T07:12:03.326Z,20.30
2018-06-03T07:14:33.762Z,20.60
2018-06-03T07:17:04.075Z,20.80
2018-06-03T07:19:35.463Z,20.80
2018-06-03T07:22:06.630Z,21.10
2018-06-03T07:24:38.775Z,21.10
2018-06-03T07:27:09.163Z,21.00
2018-06-03T07:29:59.951Z,20.90
2018-06-03T07:32:32.368Z,21.00
2018-06-03T07:35:02.732Z,21.30
2018-06-03T07:37:33.124Z,21.60
2018-06-03T07:40:03.492Z,21.50
2018-06-03T07:42:33.853Z,21.60
2018-06-03T07:45:04.241Z,21.60
2018-06-03T07:47:34.621Z,21.70
2018-06-03T07:50:06.018Z,21.70
2018-06-03T07:52:36.405Z,21.00
2018-06-03T07:55:06.764Z,21.10
2018-06-03T07:57:37.121Z,21.40
2018-06-03T08:00:09.493Z,21.50
2018-06-03T08:02:47.459Z,21.30
2018-06-03T08:05:18.613Z,21.90
2018-06-03T08:10:34.893Z,21.80
2018-06-03T08:13:05.254Z,21.50
2018-06-03T08:15:35.615Z,21.40
2018-06-03T08:18:06.011Z,21.50
2018-06-03T08:20:36.368Z,21.50
2018-06-03T08:23:28.165Z,21.90
2018-06-03T08:25:58.522Z,22.10
2018-06-03T08:28:28.878Z,22.50
2018-06-03T08:30:59.253Z,22.60
2018-06-03T08:33:29.627Z,22.80
2018-06-03T08:35:59.939Z,22.60
2018-06-03T08:38:31.094Z,22.70
2018-06-03T08:41:01.460Z,23.10
2018-06-03T08:43:31.807Z,23.20
2018-06-03T08:46:09.351Z,23.20
2018-06-03T08:48:40.484Z,22.90
2018-06-03T08:51:10.840Z,22.90
2018-06-03T08:53:41.225Z,23.10
2018-06-03T08:56:11.598Z,23.10
2018-06-03T08:58:41.904Z,23.40
2018-06-03T09:01:13.048Z,23.20
2018-06-03T09:03:44.179Z,23.20
2018-06-03T09:06:14.538Z,23.20
2018-06-03T09:08:44.918Z,23.10
2018-06-03T09:11:15.278Z,23.50
2018-06-03T09:13:46.414Z,23.50
2018-06-03T09:16:17.565Z,23.80
2018-06-03T09:18:48.734Z,23.60
2018-06-03T09:21:19.249Z,23.60
2018-06-03T09:23:49.635Z,23.60
2018-06-03T09:26:20.001Z,23.50
2018-06-03T09:28:50.355Z,23.30
2018-06-03T09:31:27.920Z,23.60
2018-06-03T09:33:59.233Z,23.50
2018-06-03T09:36:29.589Z,23.60
2018-06-03T09:39:00.940Z,24.00
2018-06-03T09:41:31.300Z,24.00
2018-06-03T09:44:23.900Z,23.90
2018-06-03T09:47:13.586Z,23.80
2018-06-03T09:49:44.733Z,23.90
2018-06-03T09:52:15.101Z,23.90
2018-06-03T09:54:45.458Z,23.90
2018-06-03T09:57:16.116Z,24.30
2018-06-03T09:59:47.242Z,24.30
2018-06-03T10:02:19.026Z,24.20
2018-06-03T10:04:49.419Z,24.20
2018-06-03T10:07:19.725Z,24.10
2018-06-03T10:09:50.099Z,24.10
2018-06-03T10:12:20.499Z,24.00
2018-06-03T10:14:50.847Z,24.00
2018-06-03T10:17:21.970Z,24.20
2018-06-03T10:19:52.357Z,24.20
2018-06-03T10:22:22.712Z,24.20
2018-06-03T10:24:53.072Z,24.20
2018-06-03T10:27:23.459Z,24.20
2018-06-03T10:29:53.815Z,24.20
2018-06-03T10:32:25.975Z,23.60
2018-06-03T10:34:57.155Z,23.70
2018-06-03T10:37:27.765Z,23.70
2018-06-03T10:39:59.633Z,23.70
2018-06-03T10:42:29.999Z,23.70
2018-06-03T10:45:19.944Z,23.60
2018-06-03T10:47:51.033Z,23.60
2018-06-03T10:50:21.403Z,23.50
2018-06-03T10:52:51.708Z,24.00
2018-06-03T10:55:22.084Z,24.10
2018-06-03T10:57:52.453Z,24.30
2018-06-03T11:00:23.112Z,24.30
2018-06-03T11:02:54.267Z,24.30
2018-06-03T11:05:25.333Z,24.10
2018-06-03T11:07:56.904Z,24.10
2018-06-03T11:10:47.680Z,24.00
2018-06-03T11:13:18.036Z,24.20
2018-06-03T11:16:08.816Z,24.10
2018-06-03T11:18:39.195Z,24.10
2018-06-03T11:21:10.523Z,24.10
2018-06-03T11:23:40.916Z,23.90
2018-06-03T11:26:11.272Z,24.00
2018-06-03T11:28:41.628Z,24.00
2018-06-03T11:31:12.022Z,24.20
2018-06-03T11:33:42.573Z,24.20
2018-06-03T11:36:12.929Z,24.00
2018-06-03T11:38:44.043Z,24.00
2018-06-03T11:41:14.401Z,23.80
2018-06-03T11:43:44.755Z,23.50
2018-06-03T11:46:18.435Z,23.60
2018-06-03T11:48:48.784Z,23.70
2018-06-03T11:51:19.153Z,24.20
2018-06-03T11:53:49.608Z,24.40
2018-06-03T11:57:01.836Z,24.40
2018-06-03T12:02:21.138Z,24.30
2018-06-03T12:04:57.685Z,24.30
2018-06-03T12:07:28.047Z,24.20
2018-06-03T12:10:03.544Z,23.80
2018-06-03T12:12:33.899Z,23.80
2018-06-03T12:15:06.316Z,23.80
2018-06-03T12:17:36.696Z,24.20
2018-06-03T12:20:07.052Z,24.40
2018-06-03T12:22:41.519Z,24.40
2018-06-03T12:25:12.639Z,23.80
2018-06-03T12:27:42.985Z,23.70
2018-06-03T12:30:14.132Z,23.70
2018-06-03T12:32:45.251Z,23.90
2018-06-03T12:35:15.912Z,23.90
2018-06-03T12:37:48.461Z,23.70
2018-06-03T12:40:18.759Z,23.70
2018-06-03T12:42:53.216Z,23.50
2018-06-03T12:45:24.516Z,23.40
2018-06-03T12:47:54.875Z,23.30
2018-06-03T12:50:25.243Z,23.40
2018-06-03T12:52:55.634Z,23.80
2018-06-03T12:55:26.011Z,24.00
2018-06-03T12:57:56.377Z,24.20
2018-06-03T13:00:26.758Z,24.30
2018-06-03T13:02:57.112Z,24.70
2018-06-03T13:05:49.091Z,24.80
2018-06-03T13:08:20.212Z,24.70
2018-06-03T13:10:50.578Z,24.70
2018-06-03T13:13:21.721Z,24.00
2018-06-03T13:15:52.132Z,24.00
2018-06-03T13:18:23.488Z,23.60
2018-06-03T13:20:54.647Z,23.80
2018-06-03T13:23:25.006Z,23.80
2018-06-03T13:25:56.082Z,24.30
2018-06-03T13:28:27.223Z,24.30
2018-06-03T13:30:57.576Z,24.30
2018-06-03T13:33:28.707Z,24.60
2018-06-03T13:35:59.861Z,24.40
2018-06-03T13:38:30.931Z,24.30
2018-06-03T13:41:05.643Z,24.30
2018-06-03T13:43:37.016Z,24.40
2018-06-03T13:46:14.604Z,24.60
2018-06-03T13:48:44.967Z,24.70
2018-06-03T13:51:15.336Z,24.40
2018-06-03T13:53:45.726Z,24.50
2018-06-03T13:56:16.088Z,24.80
2018-06-03T13:58:46.435Z,24.80
2018-06-03T14:01:21.132Z,24.90
2018-06-03T14:03:52.260Z,24.80
2018-06-03T14:06:22.907Z,24.70
2018-06-03T14:08:54.008Z,24.80
2018-06-03T14:11:24.312Z,24.80
2018-06-03T14:13:59.802Z,25.00
2018-06-03T14:16:30.157Z,25.10
2018-06-03T14:19:00.779Z,24.60
2018-06-03T14:21:31.929Z,24.30
2018-06-03T14:24:02.282Z,24.30
2018-06-03T14:26:37.743Z,24.40
2018-06-03T14:29:09.121Z,24.60
2018-06-03T14:31:40.259Z,24.70
2018-06-03T14:34:10.645Z,24.50
2018-06-03T14:36:40.995Z,24.30
2018-06-03T14:39:11.360Z,24.00
2018-06-03T14:41:41.759Z,23.80
2018-06-03T14:44:12.323Z,23.80
2018-06-03T14:46:43.407Z,24.20
2018-06-03T14:49:33.991Z,24.20
2018-06-03T14:52:04.353Z,24.40
2018-06-03T14:54:34.703Z,24.10
2018-06-03T14:57:05.855Z,24.10
2018-06-03T14:59:36.932Z,24.00
2018-06-03T15:02:07.297Z,24.00
2018-06-03T15:04:37.682Z,23.90
2018-06-03T15:07:08.056Z,24.10
2018-06-03T15:09:39.151Z,24.30
2018-06-03T15:12:09.538Z,24.20
2018-06-03T15:14:39.895Z,24.20
2018-06-03T15:17:10.261Z,24.00
2018-06-03T15:19:40.664Z,24.00
2018-06-03T15:22:13.084Z,23.90
2018-06-03T15:24:43.450Z,23.80
2018-06-03T15:27:17.923Z,24.00
2018-06-03T15:29:48.288Z,24.00
2018-06-03T15:32:18.653Z,24.00
2018-06-03T15:34:49.032Z,24.00
2018-06-03T15:37:19.413Z,23.90
2018-06-03T15:39:50.472Z,23.80
2018-06-03T15:42:21.877Z,23.80
2018-06-03T15:44:52.258Z,23.90
2018-06-03T15:47:22.612Z,23.70
2018-06-03T15:49:54.059Z,23.50
2018-06-03T15:52:25.183Z,23.60
2018-06-03T15:54:55.565Z,23.60
2018-06-03T15:57:25.942Z,23.80
2018-06-03T15:59:56.302Z,23.80
2018-06-03T16:02:26.670Z,23.80
2018-06-03T16:04:59.109Z,23.80
2018-06-03T16:07:30.236Z,23.80
2018-06-03T16:12:46.168Z,23.80
2018-06-03T16:15:16.529Z,23.80
2018-06-03T16:18:08.528Z,23.80
2018-06-03T16:20:38.887Z,23.80
2018-06-03T16:23:13.686Z,23.90
2018-06-03T16:25:45.093Z,23.90
2018-06-03T16:28:15.502Z,23.90
2018-06-03T16:30:46.114Z,23.80
2018-06-03T16:33:17.240Z,23.90
2018-06-03T16:35:47.548Z,23.80
2018-06-03T16:38:25.608Z,23.80
2018-06-03T16:40:55.965Z,23.90
2018-06-03T16:43:26.368Z,23.90
2018-06-03T16:46:00.813Z,23.80
2018-06-03T16:48:31.188Z,23.80
2018-06-03T16:51:20.933Z,23.80
2018-06-03T16:53:51.312Z,23.90
2018-06-03T16:56:21.668Z,23.90
2018-06-03T16:58:53.325Z,23.90
2018-06-03T17:01:24.404Z,23.80
2018-06-03T17:03:54.705Z,23.80
2018-06-03T17:06:25.089Z,23.80
2018-06-03T17:08:55.395Z,23.80
2018-06-03T17:11:25.769Z,23.80
2018-06-03T17:13:56.916Z,23.80
2018-06-03T17:16:28.037Z,23.70
2018-06-03T17:18:58.399Z,23.70
2018-06-03T17:21:28.780Z,23.80
2018-06-03T17:23:59.135Z,23.80
2018-06-03T17:26:29.443Z,23.70
2018-06-03T17:29:00.605Z,23.70
2018-06-03T17:31:31.739Z,23.70
2018-06-03T17:34:02.860Z,23.60
2018-06-03T17:36:33.529Z,23.60
2018-06-03T17:39:03.890Z,23.50
2018-06-03T17:41:36.266Z,23.50
2018-06-03T17:44:12.729Z,23.40
2018-06-03T17:46:43.093Z,23.50
2018-06-03T17:49:13.395Z,23.40
2018-06-03T17:51:43.779Z,23.50
2018-06-03T17:54:14.139Z,23.40
2018-06-03T17:57:04.940Z,23.30
2018-06-03T17:59:57.489Z,23.30
2018-06-03T18:02:30.942Z,23.20
2018-06-03T18:05:02.069Z,23.00
2018-06-03T18:07:33.197Z,23.10
2018-06-03T18:10:04.444Z,23.00
2018-06-03T18:12:34.812Z,23.00
2018-06-03T18:15:05.177Z,23.00
2018-06-03T18:17:35.577Z,23.00
2018-06-03T18:20:05.931Z,22.90
2018-06-03T18:22:36.508Z,23.00
2018-06-03T18:25:08.340Z,23.00
2018-06-03T18:27:45.323Z,23.00
2018-06-03T18:30:15.709Z,22.80
2018-06-03T18:32:50.162Z,22.90
2018-06-03T18:35:20.551Z,22.80
2018-06-03T18:37:51.928Z,22.80
2018-06-03T18:40:22.300Z,22.80
2018-06-03T18:42:53.456Z,22.80
2018-06-03T18:45:23.847Z,22.70
2018-06-03T18:47:59.828Z,22.70
2018-06-03T18:50:30.964Z,22.60
2018-06-03T18:53:02.029Z,22.70
2018-06-03T18:55:32.354Z,22.60
2018-06-03T18:58:02.712Z,22.60
2018-06-03T19:00:56.490Z,22.60
2018-06-03T19:03:27.892Z,22.50
2018-06-03T19:05:59.020Z,22.40
2018-06-03T19:08:29.399Z,22.40
2018-06-03T19:11:18.868Z,22.50
2018-06-03T19:13:55.456Z,22.50
2018-06-03T19:16:26.527Z,22.50
2018-06-03T19:18:56.905Z,22.50
2018-06-03T19:21:27.320Z,22.40
2018-06-03T19:23:58.419Z,22.20
2018-06-03T19:26:28.782Z,22.20
2018-06-03T19:29:00.436Z,22.20
2018-06-03T19:31:31.565Z,22.00
2018-06-03T19:34:02.946Z,22.00
2018-06-03T19:36:33.332Z,21.90
2018-06-03T19:39:03.685Z,21.90
2018-06-03T19:41:34.039Z,22.00
2018-06-03T19:44:10.513Z,22.00
2018-06-03T19:46:40.887Z,21.90
2018-06-03T19:49:12.032Z,21.80
2018-06-03T19:51:43.193Z,21.80
2018-06-03T19:54:13.562Z,21.70
2018-06-03T19:56:45.953Z,21.80
2018-06-03T19:59:16.344Z,21.60
2018-06-03T20:01:49.779Z,21.70
2018-06-03T20:04:20.337Z,21.70
2018-06-03T20:06:51.475Z,21.80
2018-06-03T20:09:22.599Z,21.70
2018-06-03T20:11:53.945Z,21.60
2018-06-03T20:14:24.345Z,21.50
2018-06-03T20:19:52.688Z,21.40
2018-06-03T20:22:23.815Z,21.20
2018-06-03T20:24:54.172Z,21.20
2018-06-03T20:27:25.320Z,21.10
2018-06-03T20:29:56.395Z,21.00
2018-06-03T20:32:30.878Z,21.00
2018-06-03T20:35:02.003Z,21.10
2018-06-03T20:37:32.370Z,21.10
2018-06-03T20:40:03.680Z,21.10
2018-06-03T20:42:34.111Z,21.00
2018-06-03T20:45:04.647Z,21.00
2018-06-03T20:47:35.992Z,21.00
2018-06-03T20:50:07.112Z,21.00
2018-06-03T20:52:37.471Z,21.00
2018-06-03T20:55:08.612Z,20.80
2018-06-03T20:57:39.731Z,20.80
2018-06-03T21:00:10.036Z,20.70
2018-06-03T21:02:40.427Z,20.80
2018-06-03T21:05:10.812Z,20.80
2018-06-03T21:07:42.379Z,20.70
2018-06-03T21:10:13.528Z,20.60
2018-06-03T21:12:45.567Z,20.60
2018-06-03T21:15:16.927Z,20.60
2018-06-03T21:17:47.315Z,20.70
2018-06-03T21:20:36.789Z,20.60
2018-06-03T21:23:14.494Z,20.60
2018-06-03T21:25:44.872Z,20.50
2018-06-03T21:28:15.994Z,20.60
2018-06-03T21:30:46.369Z,20.60
2018-06-03T21:33:16.691Z,20.50
2018-06-03T21:35:47.233Z,20.50
2018-06-03T21:38:19.680Z,20.30
2018-06-03T21:40:50.049Z,20.40
2018-06-03T21:43:40.753Z,20.50
2018-06-03T21:46:18.260Z,20.40
2018-06-03T21:48:48.654Z,20.30
2018-06-03T21:51:19.009Z,20.30
2018-06-03T21:53:49.579Z,20.30
2018-06-03T21:56:20.742Z,20.40
2018-06-03T21:58:51.051Z,20.40
2018-06-03T22:01:22.371Z,20.20
2018-06-03T22:03:52.756Z,20.20
2018-06-03T22:06:25.159Z,20.30
2018-06-03T22:08:55.530Z,20.30
2018-06-03T22:11:25.912Z,20.30
2018-06-03T22:13:56.271Z,20.30
2018-06-03T22:16:27.397Z,20.20
2018-06-03T22:18:57.779Z,20.20
2018-06-03T22:21:32.177Z,20.10
2018-06-03T22:24:02.531Z,20.10
2018-06-03T22:26:40.506Z,20.10
2018-06-03T22:29:10.865Z,20.10
2018-06-03T22:32:00.620Z,20.00
2018-06-03T22:34:30.994Z,20.10
2018-06-03T22:37:01.357Z,20.20
2018-06-03T22:39:32.518Z,20.20
2018-06-03T22:42:02.875Z,20.20
2018-06-03T22:44:54.691Z,20.10
2018-06-03T22:47:32.371Z,20.10
2018-06-03T22:50:02.751Z,20.10
2018-06-03T22:52:33.118Z,20.00
2018-06-03T22:55:03.675Z,20.00
2018-06-03T22:57:53.419Z,19.90
2018-06-03T23:00:24.536Z,20.00
2018-06-03T23:02:54.909Z,20.00
2018-06-03T23:05:25.302Z,20.00
2018-06-03T23:07:56.431Z,19.90
2018-06-03T23:10:26.735Z,19.90
2018-06-03T23:12:57.315Z,19.90
2018-06-03T23:15:28.445Z,19.90
2018-06-03T23:17:59.577Z,19.90
2018-06-03T23:20:29.953Z,19.90
2018-06-03T23:23:02.368Z,20.00
2018-06-03T23:25:33.415Z,19.90
2018-06-03T23:28:03.803Z,20.10
2018-06-03T23:30:34.182Z,20.00
2018-06-03T23:33:05.326Z,20.10
2018-06-03T23:35:36.490Z,20.10
2018-06-03T23:38:07.605Z,20.10
2018-06-03T23:40:37.977Z,20.00
2018-06-03T23:43:08.363Z,20.10
2018-06-03T23:45:39.502Z,20.00
2018-06-03T23:48:09.862Z,20.00
2018-06-03T23:50:40.488Z,20.00
2018-06-03T23:53:11.610Z,20.00
2018-06-03T23:55:41.927Z,20.00
2018-06-03T23:58:12.316Z,20.10
